KSGU/SGU METAR and TAF weather

Enter ICAO airport designator
Station Type Date Time Source
KSGU METAR 2021/05/14 03:56 UTC NOAA

KSGU 140356Z AUTO 26005KT 10SM CLR 27/M09 A2992 RMK AO2 SLP099 T02671094


Station Type Date Time Source
KSGU Decoded METAR 2021/05/14 03:56 UTC NOAA

St George, St George Municipal Airport, UT, United States (KSGU) 37-05N 113-36W
May 13, 2021 - 11:56 PM EDT / 2021.05.14 0356 UTC
Wind: from the W (260 degrees) at 6 MPH (5 KT):0
Visibility: 10 mile(s):0
Sky conditions: clear
Temperature: 80.1 F (26.7 C)
Dew Point: 15.1 F (-9.4 C)
Relative Humidity: 8%
Pressure (altimeter): 29.92 in. Hg (1013 hPa)
ob: KSGU 140356Z AUTO 26005KT 10SM CLR 27/M09 A2992 RMK AO2 SLP099 T02671094
cycle: 4

Station Type Date Time Source
KSGU TAF 2021/05/13 18:39 UTC NOAA

KSGU 131735Z 1318/1418 26007KT P6SM SKC
FM132200 26010G20KT P6SM SKC
FM140200 26009KT P6SM SKC
FM140400 14006KT P6SM SKC

Example: see airport list